createdAt,value
2019-05-07T00:01:54.945Z,5.12
2019-05-07T00:04:24.394Z,5.13
2019-05-07T00:06:54.470Z,5.18
2019-05-07T00:09:24.458Z,5.25
2019-05-07T00:11:54.249Z,5.28
2019-05-07T00:14:24.931Z,5.36
2019-05-07T00:16:54.835Z,5.44
2019-05-07T00:19:24.989Z,5.56
2019-05-07T00:21:55.155Z,5.69
2019-05-07T00:24:25.140Z,5.76
2019-05-07T00:26:54.989Z,5.89
2019-05-07T00:29:24.808Z,5.94
2019-05-07T00:31:55.177Z,6.03
2019-05-07T00:34:29.407Z,6.06
2019-05-07T00:37:07.003Z,6.14
2019-05-07T00:40:02.796Z,6.16
2019-05-07T00:42:39.252Z,6.20
2019-05-07T00:45:20.312Z,6.25
2019-05-07T00:47:47.665Z,6.33
2019-05-07T00:50:24.344Z,6.35
2019-05-07T00:52:54.484Z,6.30
2019-05-07T00:55:24.893Z,6.40
2019-05-07T00:57:55.436Z,6.44
2019-05-07T01:00:25.328Z,6.57
2019-05-07T01:02:57.414Z,6.63
2019-05-07T01:05:27.303Z,6.67
2019-05-07T01:07:57.694Z,6.71
2019-05-07T01:10:27.466Z,6.79
2019-05-07T01:12:59.301Z,6.84
2019-05-07T01:15:32.093Z,6.90
2019-05-07T01:18:02.886Z,6.94
2019-05-07T01:20:33.125Z,6.91
2019-05-07T01:23:02.982Z,6.92
2019-05-07T01:25:33.511Z,6.87
2019-05-07T01:28:04.058Z,6.82
2019-05-07T01:30:37.625Z,6.84
2019-05-07T01:33:38.658Z,6.87
2019-05-07T01:36:19.421Z,6.77
2019-05-07T01:38:49.341Z,6.70
2019-05-07T01:41:19.323Z,6.72
2019-05-07T01:43:49.767Z,6.69
2019-05-07T01:46:19.796Z,6.68
2019-05-07T01:48:53.580Z,6.72
2019-05-07T01:51:22.232Z,6.75
2019-05-07T01:53:52.493Z,6.80
2019-05-07T01:56:23.469Z,6.83
2019-05-07T01:58:53.509Z,6.91
2019-05-07T02:01:23.791Z,6.95
2019-05-07T02:04:09.638Z,6.97
2019-05-07T02:06:59.026Z,6.96
2019-05-07T02:09:47.645Z,7.05
2019-05-07T02:12:31.772Z,7.03
2019-05-07T02:15:03.523Z,7.04
2019-05-07T02:17:33.542Z,7.05
2019-05-07T02:20:03.421Z,7.05
2019-05-07T02:22:33.329Z,7.02
2019-05-07T02:25:03.559Z,7.06
2019-05-07T02:27:33.599Z,7.12
2019-05-07T02:30:04.722Z,7.08
2019-05-07T02:32:34.719Z,7.07
2019-05-07T02:35:05.090Z,7.10
2019-05-07T02:37:51.002Z,7.11
2019-05-07T02:40:22.875Z,7.03
2019-05-07T02:42:53.975Z,7.12
2019-05-07T02:45:37.170Z,7.14
2019-05-07T02:48:07.239Z,7.14
2019-05-07T02:50:56.088Z,7.16
2019-05-07T02:53:33.745Z,7.09
2019-05-07T02:56:04.410Z,7.11
2019-05-07T02:58:34.364Z,7.08
2019-05-07T03:01:05.156Z,7.08
2019-05-07T03:03:35.554Z,7.08
2019-05-07T03:06:05.526Z,7.12
2019-05-07T03:08:36.260Z,7.05
2019-05-07T03:11:06.230Z,7.06
2019-05-07T03:13:36.799Z,7.04
2019-05-07T03:16:07.423Z,7.09
2019-05-07T03:18:38.013Z,7.08
2019-05-07T03:21:15.094Z,7.10
2019-05-07T03:24:03.930Z,7.15
2019-05-07T03:26:38.444Z,7.19
2019-05-07T03:29:13.198Z,7.07
2019-05-07T03:32:06.449Z,7.12
2019-05-07T03:34:57.833Z,7.14
2019-05-07T03:37:33.192Z,7.10
2019-05-07T03:40:03.018Z,7.06
2019-05-07T03:42:33.899Z,7.12
2019-05-07T03:45:23.100Z,7.08
2019-05-07T03:48:03.865Z,7.05
2019-05-07T03:50:33.980Z,7.02
2019-05-07T03:53:03.926Z,7.08
2019-05-07T03:55:34.328Z,7.05
2019-05-07T03:58:04.781Z,7.08
2019-05-07T04:00:35.475Z,7.01
2019-05-07T04:03:05.473Z,7.05
2019-05-07T04:05:35.388Z,7.09
2019-05-07T04:08:05.443Z,7.14
2019-05-07T04:10:35.351Z,7.15
2019-05-07T04:13:05.341Z,7.22
2019-05-07T04:15:35.506Z,7.22
2019-05-07T04:18:05.421Z,7.30
2019-05-07T04:20:35.452Z,7.30
2019-05-07T04:23:05.968Z,7.30
2019-05-07T04:25:58.019Z,7.30
2019-05-07T04:28:36.902Z,7.22
2019-05-07T04:31:07.040Z,7.23
2019-05-07T04:33:43.691Z,7.30
2019-05-07T04:36:23.063Z,7.33
2019-05-07T04:38:53.269Z,7.37
2019-05-07T04:41:23.780Z,7.47
2019-05-07T04:43:54.280Z,7.56
2019-05-07T04:46:24.584Z,7.65
2019-05-07T04:48:54.898Z,7.69
2019-05-07T04:51:33.607Z,7.55
2019-05-07T04:54:04.266Z,7.57
2019-05-07T04:56:34.306Z,7.74
2019-05-07T04:59:04.341Z,7.79
2019-05-07T05:01:38.463Z,7.87
2019-05-07T05:04:24.265Z,7.89
2019-05-07T05:06:44.147Z,7.93
2019-05-07T05:09:14.573Z,8.00
2019-05-07T05:11:44.610Z,8.09
2019-05-07T05:14:14.439Z,8.20
2019-05-07T05:16:44.309Z,8.27
2019-05-07T05:19:14.221Z,8.28
2019-05-07T05:22:12.855Z,8.33
2019-05-07T05:24:46.722Z,8.37
2019-05-07T05:27:16.686Z,8.38
2019-05-07T05:29:47.029Z,8.19
2019-05-07T05:32:17.181Z,8.24
2019-05-07T05:34:47.082Z,8.24
2019-05-07T05:37:17.547Z,8.23
2019-05-07T05:39:47.421Z,8.18
2019-05-07T05:42:27.634Z,8.18
2019-05-07T05:44:57.694Z,8.28
2019-05-07T05:47:27.891Z,8.20
2019-05-07T05:49:57.671Z,8.23
2019-05-07T05:52:37.646Z,8.04
2019-05-07T05:55:19.585Z,7.99
2019-05-07T05:58:07.262Z,8.05
2019-05-07T06:01:13.120Z,8.05
2019-05-07T06:04:22.105Z,7.80
2019-05-07T06:07:10.780Z,7.52
2019-05-07T06:09:43.517Z,7.34
2019-05-07T06:12:32.777Z,7.37
2019-05-07T06:15:12.647Z,7.28
2019-05-07T06:18:17.714Z,7.14
2019-05-07T06:21:06.156Z,6.93
2019-05-07T06:23:44.467Z,6.70
2019-05-07T06:26:14.664Z,6.69
2019-05-07T06:28:44.668Z,6.67
2019-05-07T06:31:15.762Z,6.30
2019-05-07T06:33:47.004Z,6.22
2019-05-07T06:36:21.981Z,6.13
2019-05-07T06:39:02.296Z,6.06
2019-05-07T06:41:50.054Z,6.12
2019-05-07T06:44:22.772Z,6.02
2019-05-07T06:46:53.394Z,6.08
2019-05-07T06:49:23.361Z,6.09
2019-05-07T06:51:55.634Z,6.07
2019-05-07T06:54:25.523Z,6.21
2019-05-07T06:56:55.770Z,6.10
2019-05-07T06:59:37.598Z,6.16
2019-05-07T07:02:28.680Z,6.23
2019-05-07T07:05:02.987Z,6.28
2019-05-07T07:07:45.587Z,6.40
2019-05-07T07:10:53.708Z,6.59
2019-05-07T07:13:24.522Z,6.66
2019-05-07T07:15:57.690Z,6.50
2019-05-07T07:18:33.110Z,6.60
2019-05-07T07:21:04.444Z,6.93
2019-05-07T07:23:34.856Z,7.10
2019-05-07T07:26:05.013Z,7.20
2019-05-07T07:28:35.247Z,7.17
2019-05-07T07:31:26.160Z,7.79
2019-05-07T07:33:56.349Z,7.40
2019-05-07T07:36:32.074Z,7.41
2019-05-07T07:39:02.158Z,7.76
2019-05-07T07:41:42.205Z,8.40
2019-05-07T07:44:16.457Z,8.91
2019-05-07T07:47:02.720Z,9.13
2019-05-07T07:49:33.225Z,9.65
2019-05-07T07:52:03.385Z,9.53
2019-05-07T07:54:33.393Z,10.01
2019-05-07T07:57:17.430Z,9.95
2019-05-07T08:00:09.287Z,10.24
2019-05-07T08:02:44.265Z,10.65
2019-05-07T08:05:14.308Z,11.42
2019-05-07T08:07:45.367Z,11.02
2019-05-07T08:10:15.697Z,11.40
2019-05-07T08:12:45.669Z,11.40
2019-05-07T08:15:20.920Z,11.03
2019-05-07T08:17:49.386Z,10.21
2019-05-07T08:20:22.342Z,10.20
2019-05-07T08:22:53.268Z,11.01
2019-05-07T08:25:42.665Z,12.02
2019-05-07T08:28:13.401Z,11.54
2019-05-07T08:30:45.320Z,11.58
2019-05-07T08:33:22.423Z,11.60
2019-05-07T08:36:14.745Z,12.39
2019-05-07T08:38:53.210Z,13.91
2019-05-07T08:41:25.561Z,16.93
2019-05-07T08:44:11.646Z,16.20
2019-05-07T08:46:57.810Z,15.42
2019-05-07T08:49:37.028Z,14.78
2019-05-07T08:52:05.763Z,13.64
2019-05-07T08:54:36.045Z,13.68
2019-05-07T08:57:06.995Z,14.94
2019-05-07T08:59:43.722Z,17.53
2019-05-07T09:02:16.022Z,17.94
2019-05-07T09:04:47.476Z,17.56
2019-05-07T09:07:21.672Z,18.98
2019-05-07T09:09:56.808Z,18.39
2019-05-07T09:12:27.999Z,17.83
2019-05-07T09:15:01.994Z,17.12
2019-05-07T09:17:31.972Z,16.62
2019-05-07T09:20:09.138Z,16.46
2019-05-07T09:22:42.708Z,17.55
2019-05-07T09:25:18.738Z,19.80
2019-05-07T09:27:53.425Z,20.71
2019-05-07T09:30:34.476Z,20.21
2019-05-07T09:33:23.490Z,20.11
2019-05-07T09:35:55.161Z,17.75
2019-05-07T09:38:25.761Z,15.49
2019-05-07T09:40:57.053Z,15.70
2019-05-07T09:43:27.319Z,16.38
2019-05-07T09:45:58.442Z,15.60
2019-05-07T09:48:30.798Z,16.67
2019-05-07T09:51:02.355Z,16.97
2019-05-07T09:53:35.551Z,16.11
2019-05-07T09:56:12.358Z,16.95
2019-05-07T09:58:45.190Z,16.90
2019-05-07T10:01:15.512Z,16.63
2019-05-07T10:03:51.844Z,16.80
2019-05-07T10:06:23.496Z,16.85
2019-05-07T10:08:54.791Z,17.41
2019-05-07T10:11:49.821Z,17.65
2019-05-07T10:14:22.396Z,18.06
2019-05-07T10:17:11.952Z,18.24
2019-05-07T10:19:45.757Z,18.35
2019-05-07T10:22:16.471Z,18.85
2019-05-07T10:24:46.985Z,18.97
2019-05-07T10:27:17.136Z,17.98
2019-05-07T10:29:47.490Z,16.92
2019-05-07T10:32:17.866Z,17.37
2019-05-07T10:34:49.747Z,17.67
2019-05-07T10:37:20.538Z,16.86
2019-05-07T10:39:51.990Z,15.70
2019-05-07T10:42:22.730Z,15.94
2019-05-07T10:45:10.070Z,16.35
2019-05-07T10:48:02.626Z,16.48
2019-05-07T10:50:38.362Z,17.19
2019-05-07T10:53:05.846Z,17.82
2019-05-07T10:55:36.369Z,17.30
2019-05-07T10:58:07.659Z,17.42
2019-05-07T11:00:38.084Z,18.06
2019-05-07T11:03:08.614Z,18.88
2019-05-07T11:05:41.699Z,19.07
2019-05-07T11:08:11.469Z,19.72
2019-05-07T11:10:41.951Z,19.51
2019-05-07T11:13:12.866Z,19.30
2019-05-07T11:15:45.261Z,19.47
2019-05-07T11:18:26.667Z,18.76
2019-05-07T11:20:56.662Z,18.39
2019-05-07T11:23:26.794Z,18.48
2019-05-07T11:25:56.767Z,18.79
2019-05-07T11:28:27.331Z,19.22
2019-05-07T11:30:59.312Z,18.57
2019-05-07T11:33:32.500Z,19.37
2019-05-07T11:36:02.550Z,19.66
2019-05-07T11:38:33.553Z,20.21
2019-05-07T11:41:05.044Z,21.24
2019-05-07T11:43:49.629Z,21.33
2019-05-07T11:46:24.681Z,19.62
2019-05-07T11:49:01.010Z,19.94
2019-05-07T11:51:45.300Z,20.40
2019-05-07T11:54:15.289Z,19.87
2019-05-07T11:56:45.174Z,19.55
2019-05-07T11:59:16.314Z,19.38
2019-05-07T12:01:50.110Z,18.88
2019-05-07T12:04:20.123Z,19.06
2019-05-07T12:06:52.083Z,19.51
2019-05-07T12:09:22.099Z,19.44
2019-05-07T12:11:52.352Z,18.98
2019-05-07T12:14:31.377Z,18.06
2019-05-07T12:16:55.573Z,17.57
2019-05-07T12:19:25.478Z,17.47
2019-05-07T12:21:55.776Z,17.06
2019-05-07T12:24:26.603Z,16.28
2019-05-07T12:26:56.809Z,16.00
2019-05-07T12:29:27.126Z,15.46
2019-05-07T12:32:05.222Z,15.20
2019-05-07T12:34:45.248Z,15.12
2019-05-07T12:37:15.243Z,14.59
2019-05-07T12:39:45.319Z,13.91
2019-05-07T12:42:15.244Z,14.09
2019-05-07T12:44:45.495Z,14.47
2019-05-07T12:47:16.331Z,14.38
2019-05-07T12:49:46.403Z,14.36
2019-05-07T12:52:32.025Z,14.03
2019-05-07T12:55:08.584Z,13.85
2019-05-07T12:57:38.730Z,13.73
2019-05-07T13:00:26.940Z,13.70
2019-05-07T13:03:36.361Z,13.96
2019-05-07T13:06:07.252Z,14.64
2019-05-07T13:08:37.372Z,15.25
2019-05-07T13:11:07.642Z,16.02
2019-05-07T13:13:38.109Z,16.82
2019-05-07T13:16:08.821Z,16.22
2019-05-07T13:18:42.153Z,16.58
2019-05-07T13:21:11.974Z,17.23
2019-05-07T13:23:42.274Z,17.99
2019-05-07T13:26:12.916Z,18.23
2019-05-07T13:28:44.385Z,18.24
2019-05-07T13:31:14.576Z,17.92
2019-05-07T13:33:46.926Z,17.60
2019-05-07T13:36:17.441Z,17.39
2019-05-07T13:38:57.786Z,17.58
2019-05-07T13:41:47.155Z,18.23
2019-05-07T13:44:42.267Z,18.83
2019-05-07T13:47:29.335Z,19.32
2019-05-07T13:50:02.458Z,18.81
2019-05-07T13:52:34.057Z,17.64
2019-05-07T13:55:04.189Z,17.12
2019-05-07T13:57:34.213Z,17.03
2019-05-07T14:00:05.898Z,17.33
2019-05-07T14:02:35.977Z,17.51
2019-05-07T14:05:06.530Z,17.01
2019-05-07T14:07:41.676Z,16.73
2019-05-07T14:10:12.817Z,16.41
2019-05-07T14:12:43.213Z,16.25
2019-05-07T14:15:14.031Z,16.46
2019-05-07T14:17:44.484Z,16.34
2019-05-07T14:20:14.868Z,16.16
2019-05-07T14:22:45.867Z,15.66
2019-05-07T14:25:16.212Z,15.61
2019-05-07T14:27:52.614Z,15.60
2019-05-07T14:30:24.527Z,15.38
2019-05-07T14:33:12.420Z,15.71
2019-05-07T14:35:49.053Z,15.49
2019-05-07T14:38:37.957Z,15.65
2019-05-07T14:41:08.221Z,15.70
2019-05-07T14:43:47.304Z,15.75
2019-05-07T14:46:17.416Z,15.73
2019-05-07T14:48:52.114Z,15.46
2019-05-07T14:51:22.252Z,15.27
2019-05-07T14:53:52.811Z,15.55
2019-05-07T14:56:23.243Z,15.30
2019-05-07T14:58:53.827Z,15.40
2019-05-07T15:01:24.090Z,15.09
2019-05-07T15:03:54.113Z,15.25
2019-05-07T15:06:24.189Z,14.52
2019-05-07T15:08:54.447Z,13.52
2019-05-07T15:11:24.470Z,12.96
2019-05-07T15:13:55.012Z,12.97
2019-05-07T15:16:25.143Z,12.72
2019-05-07T15:19:00.342Z,12.35
2019-05-07T15:21:32.314Z,11.95
2019-05-07T15:24:03.420Z,12.19
2019-05-07T15:26:34.849Z,12.41
2019-05-07T15:29:14.039Z,12.82
2019-05-07T15:32:04.864Z,12.97
2019-05-07T15:34:35.261Z,12.63
2019-05-07T15:37:05.526Z,12.66
2019-05-07T15:39:35.238Z,13.29
2019-05-07T15:42:05.349Z,13.81
2019-05-07T15:44:35.751Z,13.54
2019-05-07T15:47:11.823Z,13.42
2019-05-07T15:49:42.209Z,13.07
2019-05-07T15:52:18.499Z,13.03
2019-05-07T15:54:49.103Z,13.41
2019-05-07T15:57:24.489Z,14.07
2019-05-07T16:00:05.347Z,14.47
2019-05-07T16:02:38.438Z,14.70
2019-05-07T16:05:08.972Z,14.51
2019-05-07T16:07:39.210Z,14.65
2019-05-07T16:10:09.532Z,15.07
2019-05-07T16:12:42.411Z,15.15
2019-05-07T16:15:13.865Z,15.53
2019-05-07T16:17:48.835Z,15.56
2019-05-07T16:20:18.859Z,15.48
2019-05-07T16:22:52.559Z,15.00
2019-05-07T16:25:24.247Z,15.19
2019-05-07T16:27:54.324Z,15.37
2019-05-07T16:30:24.453Z,15.57
2019-05-07T16:32:55.401Z,15.56
2019-05-07T16:35:25.455Z,15.58
2019-05-07T16:37:55.573Z,15.28
2019-05-07T16:40:25.477Z,15.23
2019-05-07T16:43:15.339Z,15.20
2019-05-07T16:45:51.644Z,15.14
2019-05-07T16:48:23.260Z,14.65
2019-05-07T16:50:53.318Z,14.58
2019-05-07T16:53:29.636Z,14.29
2019-05-07T16:55:54.792Z,14.12
2019-05-07T16:58:35.651Z,14.23
2019-05-07T17:01:08.252Z,14.06
2019-05-07T17:03:44.540Z,13.98
2019-05-07T17:06:15.120Z,13.85
2019-05-07T17:09:04.252Z,13.66
2019-05-07T17:11:34.350Z,13.43
2019-05-07T17:14:04.399Z,13.46
2019-05-07T17:16:34.417Z,13.48
2019-05-07T17:19:05.591Z,13.45
2019-05-07T17:21:40.075Z,13.25
2019-05-07T17:24:11.931Z,13.19
2019-05-07T17:26:42.510Z,13.12
2019-05-07T17:29:12.863Z,13.11
2019-05-07T17:31:43.255Z,13.16
2019-05-07T17:34:13.427Z,13.01
2019-05-07T17:36:44.135Z,12.87
2019-05-07T17:39:16.381Z,12.83
2019-05-07T17:41:47.210Z,12.67
2019-05-07T17:44:17.209Z,12.69
2019-05-07T17:46:47.759Z,12.80
2019-05-07T17:49:17.908Z,12.73
2019-05-07T17:51:49.058Z,12.60
2019-05-07T17:54:22.368Z,12.57
2019-05-07T17:56:52.758Z,12.47
2019-05-07T17:59:22.917Z,12.46
2019-05-07T18:02:18.254Z,12.38
2019-05-07T18:04:52.181Z,12.43
2019-05-07T18:07:21.604Z,12.26
2019-05-07T18:09:51.939Z,12.15
2019-05-07T18:12:22.614Z,12.08
2019-05-07T18:14:54.223Z,12.26
2019-05-07T18:17:50.097Z,12.09
2019-05-07T18:20:22.190Z,12.01
2019-05-07T18:22:53.074Z,12.04
2019-05-07T18:25:26.964Z,11.87
2019-05-07T18:27:57.608Z,11.74
2019-05-07T18:30:29.692Z,11.67
2019-05-07T18:33:28.523Z,11.55
2019-05-07T18:35:59.378Z,11.51
2019-05-07T18:38:30.184Z,11.37
2019-05-07T18:41:02.825Z,11.23
2019-05-07T18:43:35.556Z,11.15
2019-05-07T18:46:05.790Z,11.02
2019-05-07T18:48:37.555Z,10.95
2019-05-07T18:51:08.988Z,10.88
2019-05-07T18:53:42.321Z,10.77
2019-05-07T18:56:12.769Z,10.71
2019-05-07T18:58:43.739Z,10.68
2019-05-07T19:01:15.324Z,10.62
2019-05-07T19:03:50.078Z,10.57
2019-05-07T19:06:22.268Z,10.54
2019-05-07T19:08:52.884Z,10.52
2019-05-07T19:11:23.543Z,10.48
2019-05-07T19:13:56.171Z,10.52
2019-05-07T19:16:26.897Z,10.49
2019-05-07T19:18:58.487Z,10.48
2019-05-07T19:21:31.854Z,10.50
2019-05-07T19:24:05.029Z,10.46
2019-05-07T19:26:35.742Z,10.44
2019-05-07T19:29:06.454Z,10.41
2019-05-07T19:31:41.761Z,10.36
2019-05-07T19:34:12.623Z,10.30
2019-05-07T19:36:43.232Z,10.26
2019-05-07T19:39:13.810Z,10.20
2019-05-07T19:41:46.072Z,10.14
2019-05-07T19:44:17.111Z,10.04
2019-05-07T19:46:49.149Z,9.91
2019-05-07T19:49:24.403Z,9.85
2019-05-07T19:51:55.680Z,9.82
2019-05-07T19:54:26.414Z,9.82
2019-05-07T19:56:57.378Z,9.70
2019-05-07T19:59:35.823Z,9.60
2019-05-07T20:02:12.119Z,9.56
2019-05-07T20:04:53.653Z,9.56
2019-05-07T20:07:32.607Z,9.52
2019-05-07T20:10:12.974Z,9.52
2019-05-07T20:12:48.783Z,9.55
2019-05-07T20:15:26.108Z,9.52
2019-05-07T20:18:03.130Z,9.47
2019-05-07T20:20:37.939Z,9.48
2019-05-07T20:23:11.917Z,9.43
2019-05-07T20:25:42.135Z,9.33
2019-05-07T20:28:12.848Z,9.28
2019-05-07T20:30:43.723Z,9.23
2019-05-07T20:33:14.107Z,9.17
2019-05-07T20:35:44.769Z,9.12
2019-05-07T20:38:16.144Z,9.05
2019-05-07T20:40:52.036Z,8.96
2019-05-07T20:43:24.354Z,8.86
2019-05-07T20:45:54.760Z,8.76
2019-05-07T20:48:25.835Z,8.64
2019-05-07T20:50:58.712Z,8.52
2019-05-07T20:53:57.319Z,8.40
2019-05-07T20:56:34.189Z,8.30
2019-05-07T20:59:04.994Z,8.21
2019-05-07T21:01:41.854Z,8.13
2019-05-07T21:04:12.952Z,8.06
2019-05-07T21:06:43.518Z,7.98
2019-05-07T21:09:16.141Z,7.92
2019-05-07T21:11:46.143Z,7.89
2019-05-07T21:14:16.519Z,7.85
2019-05-07T21:16:46.530Z,7.81
2019-05-07T21:19:17.820Z,7.82
2019-05-07T21:21:48.131Z,7.90
2019-05-07T21:24:18.091Z,8.00
2019-05-07T21:26:48.143Z,8.11
2019-05-07T21:29:21.742Z,8.26
2019-05-07T21:31:53.985Z,8.34
2019-05-07T21:34:24.237Z,8.38
2019-05-07T21:36:54.312Z,8.42
2019-05-07T21:39:25.558Z,8.46
2019-05-07T21:41:56.698Z,8.51
2019-05-07T21:44:27.387Z,8.58
2019-05-07T21:46:57.761Z,8.65
2019-05-07T21:49:28.483Z,8.73
2019-05-07T21:52:01.742Z,8.79
2019-05-07T21:55:02.509Z,8.80
2019-05-07T21:57:49.211Z,8.83
2019-05-07T22:00:39.105Z,8.82
2019-05-07T22:03:13.091Z,8.89
2019-05-07T22:05:44.382Z,8.85
2019-05-07T22:08:15.193Z,8.84
2019-05-07T22:10:45.846Z,8.88
2019-05-07T22:13:17.700Z,8.94
2019-05-07T22:15:55.088Z,8.95
2019-05-07T22:18:24.256Z,8.93
2019-05-07T22:20:54.526Z,8.90
2019-05-07T22:23:24.902Z,8.87
2019-05-07T22:25:55.148Z,8.87
2019-05-07T22:28:25.434Z,8.87
2019-05-07T22:31:14.966Z,8.85
2019-05-07T22:33:59.387Z,8.83
2019-05-07T22:36:32.523Z,8.77
2019-05-07T22:39:02.094Z,8.72
2019-05-07T22:41:32.423Z,8.70
2019-05-07T22:44:03.044Z,8.68
2019-05-07T22:46:33.408Z,8.67
2019-05-07T22:49:03.801Z,8.67
2019-05-07T22:51:34.164Z,8.61
2019-05-07T22:54:04.394Z,8.54
2019-05-07T22:56:52.537Z,8.49
2019-05-07T22:59:22.773Z,8.43
2019-05-07T23:01:54.929Z,8.36
2019-05-07T23:04:24.358Z,8.29
2019-05-07T23:06:54.608Z,8.24
2019-05-07T23:09:24.550Z,8.13
2019-05-07T23:11:54.994Z,8.09
2019-05-07T23:14:25.926Z,7.93
2019-05-07T23:16:55.905Z,7.81
2019-05-07T23:19:26.287Z,7.71
2019-05-07T23:21:56.181Z,7.63
2019-05-07T23:24:26.017Z,7.50
2019-05-07T23:26:56.329Z,7.40
2019-05-07T23:29:26.773Z,7.29
2019-05-07T23:31:56.900Z,7.21
2019-05-07T23:34:27.194Z,7.17
2019-05-07T23:36:57.763Z,7.17
2019-05-07T23:39:30.464Z,7.12
2019-05-07T23:42:12.681Z,7.05
2019-05-07T23:44:43.150Z,6.96
2019-05-07T23:47:13.745Z,6.90
2019-05-07T23:49:43.763Z,6.88
2019-05-07T23:52:15.721Z,6.86
2019-05-07T23:54:45.943Z,6.92
2019-05-07T23:57:15.893Z,6.92
2019-05-07T23:59:46.998Z,6.87
